Time;durP1;ratioP1;P1;durP2;ratioP2;P2;SDS_P1;SDS_P2;PMS_P1;PMS_P2;Temp;Humidity;BMP_temperature;BMP_pressure;BME280_temperature;BME280_humidity;BME280_pressure;Samples;Min_cycle;Max_cycle;Signal;HPM_P1;HPM_P2
2022/07/24 00:01:55;;;;;;;1.85;1.40;;;;;;;20.53;60.35;99462.39;1696735;84;21120;-82
2022/07/24 00:04:22;;;;;;;2.45;1.50;;;;;;;20.54;60.11;99455.21;1696402;84;21125;-80
2022/07/24 00:06:50;;;;;;;5.37;1.30;;;;;;;20.56;60.03;99459.95;1696375;84;21057;-80
2022/07/24 00:09:16;;;;;;;2.15;1.50;;;;;;;20.58;59.84;99460.21;1696640;84;21084;-80
2022/07/24 00:11:43;;;;;;;4.00;1.80;;;;;;;20.61;59.79;99460.47;1696199;84;21089;-81
2022/07/24 00:14:10;;;;;;;4.37;1.40;;;;;;;20.64;59.73;99462.91;1696363;84;21017;-79
2022/07/24 00:16:37;;;;;;;1.57;1.47;;;;;;;20.67;59.76;99461.34;1696444;84;21620;-80
2022/07/24 00:19:05;;;;;;;1.90;1.80;;;;;;;20.66;59.79;99463.67;1696733;84;21045;-79
2022/07/24 00:21:32;;;;;;;8.98;3.95;;;;;;;20.64;59.89;99467.42;1696461;84;21144;-79
2022/07/24 00:23:59;;;;;;;13.08;6.05;;;;;;;20.59;60.16;99467.73;1696425;84;21057;-81
2022/07/24 00:26:26;;;;;;;13.38;6.33;;;;;;;20.55;60.31;99466.28;1696600;84;21041;-80
2022/07/24 00:28:52;;;;;;;12.03;5.70;;;;;;;20.51;60.47;99467.47;1696539;84;21129;-79
2022/07/24 00:31:19;;;;;;;16.87;5.78;;;;;;;20.46;60.74;99466.97;1696563;84;21073;-81
2022/07/24 00:33:48;;;;;;;18.15;7.12;;;;;;;20.38;61.02;99458.22;1696575;84;21060;-81
2022/07/24 00:36:15;;;;;;;9.40;4.10;;;;;;;20.29;61.17;99453.10;1696825;84;21044;-81
2022/07/24 00:38:42;;;;;;;7.60;2.90;;;;;;;20.25;61.42;99462.30;1682713;84;21636;-79
2022/07/24 00:41:09;;;;;;;21.05;8.35;;;;;;;20.19;61.75;99465.42;1656105;86;21221;-80
2022/07/24 00:43:55;;;;;;;20.20;8.58;;;;;;;20.11;62.01;99469.19;1718885;83;21014;-79
2022/07/24 00:46:22;;;;;;;31.27;8.83;;;;;;;20.02;62.28;99467.56;1717943;81;21001;-82
2022/07/24 00:48:48;;;;;;;11.15;5.55;;;;;;;19.92;62.66;99466.55;1753786;81;21053;-80
2022/07/24 00:51:14;;;;;;;4.45;2.67;;;;;;;19.83;62.87;99470.73;1753839;81;21582;-79
2022/07/24 00:53:41;;;;;;;4.67;1.90;;;;;;;19.77;63.00;99463.20;1754292;81;21106;-81
2022/07/24 00:56:08;;;;;;;7.55;2.35;;;;;;;19.74;63.16;99461.20;1753877;81;21049;-81
2022/07/24 00:58:34;;;;;;;2.35;1.70;;;;;;;19.71;63.33;99454.27;1753865;81;21088;-82
2022/07/24 01:01:00;;;;;;;5.45;1.92;;;;;;;19.71;63.25;99457.42;1753810;81;21151;-81
2022/07/24 01:03:27;;;;;;;5.15;1.80;;;;;;;19.70;63.23;99456.55;1754023;81;21607;-81
2022/07/24 01:05:53;;;;;;;3.52;1.60;;;;;;;19.71;63.15;99456.93;1754011;81;21134;-81
2022/07/24 01:08:21;;;;;;;4.95;1.72;;;;;;;19.68;63.16;99460.66;1779778;80;21091;-81
2022/07/24 01:10:48;;;;;;;3.27;1.80;;;;;;;19.68;63.30;99468.67;1786362;80;21141;-81
2022/07/24 01:13:14;;;;;;;3.55;2.20;;;;;;;19.63;63.38;99480.16;1786710;80;21163;-80
2022/07/24 01:15:42;;;;;;;5.30;2.05;;;;;;;19.60;63.43;99480.88;1786475;80;21161;-81
2022/07/24 01:18:08;;;;;;;7.28;1.90;;;;;;;19.56;63.53;99476.25;1786862;80;21097;-80
2022/07/24 01:20:37;;;;;;;6.72;2.42;;;;;;;19.52;63.64;99473.45;1786645;80;21107;-82
2022/07/24 01:23:04;;;;;;;2.95;1.67;;;;;;;19.49;63.72;99475.00;1786294;80;21043;-81
2022/07/24 01:25:30;;;;;;;2.47;1.92;;;;;;;19.47;63.72;99471.10;1786883;80;21042;-82
2022/07/24 01:27:57;;;;;;;2.60;1.77;;;;;;;19.46;63.80;99475.22;1786637;80;21058;-81
2022/07/24 01:30:24;;;;;;;3.25;1.72;;;;;;;19.45;63.92;99477.50;1786792;80;21108;-80
2022/07/24 01:32:51;;;;;;;2.12;1.75;;;;;;;19.41;64.06;99472.03;1786810;80;20947;-80
2022/07/24 01:35:17;;;;;;;2.20;2.00;;;;;;;19.37;64.10;99471.40;1786709;80;21079;-81
2022/07/24 01:37:45;;;;;;;3.70;2.70;;;;;;;19.34;64.14;99474.77;1786266;80;21034;-78
2022/07/24 01:40:12;;;;;;;15.35;6.90;;;;;;;19.33;64.16;99479.73;1786837;80;21066;-79
2022/07/24 01:42:39;;;;;;;8.53;5.90;;;;;;;19.30;64.17;99481.66;1786452;80;21824;-81
2022/07/24 01:45:07;;;;;;;6.25;4.17;;;;;;;19.29;64.16;99477.27;1786626;80;20992;-80
2022/07/24 01:47:34;;;;;;;4.15;3.20;;;;;;;19.28;64.18;99475.59;1781931;80;21557;-79
2022/07/24 01:50:01;;;;;;;5.30;2.87;;;;;;;19.28;64.20;99475.59;1781354;80;21008;-80
2022/07/24 01:52:28;;;;;;;5.70;4.35;;;;;;;19.26;64.25;99469.48;1781120;80;20995;-80
2022/07/24 01:54:54;;;;;;;4.83;3.40;;;;;;;19.24;64.46;99472.75;1781238;80;21048;-80
2022/07/24 01:57:21;;;;;;;5.92;3.30;;;;;;;19.22;64.41;99465.34;1780885;80;21008;-81
2022/07/24 01:59:47;;;;;;;7.67;4.03;;;;;;;19.22;64.77;99465.34;1781197;80;20988;-80
2022/07/24 02:02:14;;;;;;;4.17;3.47;;;;;;;19.21;64.99;99467.63;1780946;80;21063;-79
2022/07/24 02:04:41;;;;;;;5.90;3.30;;;;;;;19.20;64.94;99461.06;1781071;80;21031;-80
2022/07/24 02:07:07;;;;;;;6.10;2.65;;;;;;;19.17;64.91;99464.82;1781280;80;21086;-81
2022/07/24 02:09:33;;;;;;;11.75;6.03;;;;;;;19.14;64.97;99463.70;1781003;80;21051;-81
2022/07/24 02:12:00;;;;;;;84.47;35.80;;;;;;;19.10;64.89;99463.56;1781201;80;20999;-81
2022/07/24 02:14:26;;;;;;;112.25;49.10;;;;;;;19.07;65.07;99463.77;1781012;80;21123;-80
2022/07/24 02:16:53;;;;;;;28.50;13.28;;;;;;;19.03;65.21;99463.59;1780894;80;21105;-80
2022/07/24 02:19:20;;;;;;;26.65;12.55;;;;;;;18.99;65.37;99464.79;1781056;80;21933;-80
2022/07/24 02:21:47;;;;;;;27.27;11.12;;;;;;;18.96;65.46;99471.66;1781099;80;21015;-80
2022/07/24 02:24:13;;;;;;;16.32;8.58;;;;;;;18.94;65.63;99469.95;1781139;80;21003;-82
2022/07/24 02:26:41;;;;;;;16.00;8.10;;;;;;;18.92;65.72;99467.87;1780769;80;21029;-81
2022/07/24 02:29:07;;;;;;;11.48;5.37;;;;;;;18.93;65.79;99476.26;1781170;80;21043;-81
2022/07/24 02:31:34;;;;;;;10.82;4.28;;;;;;;18.94;65.87;99469.95;1781310;80;21508;-80
2022/07/24 02:34:01;;;;;;;5.03;3.90;;;;;;;18.92;65.92;99466.55;1780778;80;21075;-80
2022/07/24 02:36:28;;;;;;;6.47;4.28;;;;;;;18.90;66.03;99471.14;1781116;80;21562;-79
2022/07/24 02:38:55;;;;;;;12.78;7.95;;;;;;;18.89;66.09;99474.75;1781131;80;21039;-81
2022/07/24 02:41:22;;;;;;;15.15;8.13;;;;;;;18.88;66.10;99479.73;1781194;80;21582;-83
2022/07/24 02:43:48;;;;;;;6.40;4.20;;;;;;;18.90;66.29;99484.47;1780876;80;21527;-80
2022/07/24 02:46:16;;;;;;;6.47;3.15;;;;;;;18.89;66.43;99481.41;1779565;80;21669;-80
2022/07/24 02:48:43;;;;;;;3.17;2.35;;;;;;;18.89;66.42;99488.08;1756791;80;21072;-82
2022/07/24 02:51:10;;;;;;;8.10;3.37;;;;;;;18.88;66.55;99487.73;1747686;82;21132;-82
2022/07/24 02:53:36;;;;;;;4.90;3.92;;;;;;;18.89;66.54;99489.91;1747522;82;21148;-82
2022/07/24 02:56:04;;;;;;;11.18;5.45;;;;;;;18.91;66.85;99484.85;1747920;82;21102;-82
2022/07/24 02:58:30;;;;;;;7.33;3.87;;;;;;;18.96;67.39;99479.17;1747661;82;21560;-82
2022/07/24 03:00:57;;;;;;;5.20;4.00;;;;;;;18.98;67.38;99480.40;1747591;82;21049;-83
2022/07/24 03:03:24;;;;;;;3.70;2.55;;;;;;;19.02;67.25;99468.58;1748561;80;21077;-82
2022/07/24 03:05:50;;;;;;;3.12;2.52;;;;;;;19.07;66.86;99471.77;1740858;80;21676;-80
2022/07/24 03:08:17;;;;;;;5.37;2.40;;;;;;;19.11;66.64;99462.58;1736114;82;22407;-81
2022/07/24 03:10:43;;;;;;;2.17;2.00;;;;;;;19.16;66.47;99459.59;1735553;82;21111;-81
2022/07/24 03:13:12;;;;;;;3.47;2.10;;;;;;;19.20;66.48;99467.27;1735848;82;21071;-81
2022/07/24 03:15:38;;;;;;;3.85;2.20;;;;;;;19.24;66.41;99461.23;1735985;82;21060;-83
2022/07/24 03:18:05;;;;;;;3.85;2.37;;;;;;;19.26;66.42;99454.81;1735768;82;21079;-80
2022/07/24 03:20:33;;;;;;;5.00;2.15;;;;;;;19.30;66.45;99453.64;1735733;82;21149;-82
2022/07/24 03:23:00;;;;;;;6.10;2.30;;;;;;;19.33;66.40;99451.72;1735461;82;21052;-81
2022/07/24 03:25:27;;;;;;;3.02;2.22;;;;;;;19.38;66.45;99452.23;1735643;82;21479;-80
2022/07/24 03:27:54;;;;;;;9.33;2.22;;;;;;;19.42;66.45;99455.06;1735971;82;21515;-79
2022/07/24 03:30:21;;;;;;;4.10;1.90;;;;;;;19.48;66.51;99458.14;1735566;82;22305;-81
2022/07/24 03:32:47;;;;;;;2.02;1.82;;;;;;;19.51;66.65;99443.70;1735923;82;21076;-81
2022/07/24 03:35:14;;;;;;;3.62;1.90;;;;;;;19.56;66.60;99441.55;1735717;82;21001;-80
2022/07/24 03:37:42;;;;;;;6.10;1.87;;;;;;;19.62;66.66;99435.78;1735836;82;21108;-80
2022/07/24 03:40:09;;;;;;;2.80;2.02;;;;;;;19.70;66.85;99439.69;1735872;82;21055;-79
2022/07/24 03:42:36;;;;;;;2.58;2.10;;;;;;;19.75;67.10;99440.23;1735560;82;21009;-80
2022/07/24 03:45:04;;;;;;;2.27;2.17;;;;;;;19.81;66.74;99451.80;1735709;82;21115;-80
2022/07/24 03:47:30;;;;;;;3.00;2.15;;;;;;;19.85;66.91;99454.14;1735554;82;20985;-79
2022/07/24 03:49:57;;;;;;;8.15;2.83;;;;;;;19.90;66.79;99459.61;1735758;82;21051;-79
2022/07/24 03:52:24;;;;;;;8.38;3.08;;;;;;;19.94;66.59;99453.94;1735506;82;21029;-80
2022/07/24 03:54:51;;;;;;;3.37;2.50;;;;;;;19.98;66.39;99458.06;1735627;82;20981;-80
2022/07/24 03:57:17;;;;;;;7.28;2.83;;;;;;;20.06;66.76;99458.00;1736053;82;21753;-79
2022/07/24 03:59:43;;;;;;;5.97;3.15;;;;;;;20.13;66.64;99452.55;1735487;82;21622;-81
2022/07/24 04:02:11;;;;;;;4.00;2.90;;;;;;;20.21;66.59;99456.84;1735785;82;21483;-81
2022/07/24 04:04:39;;;;;;;2.85;2.65;;;;;;;20.28;66.40;99458.06;1735809;82;21072;-81
2022/07/24 04:07:07;;;;;;;4.12;3.02;;;;;;;20.34;66.19;99452.27;1735868;82;21031;-81
2022/07/24 04:09:33;;;;;;;6.12;3.47;;;;;;;20.43;65.99;99448.53;1735860;82;21082;-81
2022/07/24 04:12:02;;;;;;;3.60;2.90;;;;;;;20.50;65.79;99444.41;1735618;82;21538;-81
2022/07/24 04:14:29;;;;;;;6.97;3.17;;;;;;;20.57;65.75;99449.14;1735751;82;21016;-79
2022/07/24 04:16:56;;;;;;;8.88;2.70;;;;;;;20.65;66.07;99453.94;1735769;82;21111;-81
2022/07/24 04:19:23;;;;;;;3.65;2.70;;;;;;;20.71;65.78;99453.94;1736311;82;21040;-80
2022/07/24 04:21:52;;;;;;;4.67;2.52;;;;;;;20.80;65.89;99452.39;1735825;82;21048;-80
2022/07/24 04:24:18;;;;;;;4.45;2.60;;;;;;;20.88;65.96;99452.61;1735985;82;21067;-80
2022/07/24 04:26:45;;;;;;;4.30;2.10;;;;;;;20.96;65.23;99447.52;1736168;82;21114;-83
2022/07/24 04:29:11;;;;;;;3.35;2.37;;;;;;;21.03;65.31;99434.05;1735933;82;21096;-79
2022/07/24 04:31:38;;;;;;;3.02;2.30;;;;;;;21.12;65.20;99437.30;1736441;82;21968;-80
2022/07/24 04:34:05;;;;;;;5.17;1.90;;;;;;;21.22;65.34;99439.27;1735903;82;21406;-81
2022/07/24 04:36:33;;;;;;;5.60;1.87;;;;;;;21.32;65.34;99434.87;1736380;82;21461;-81
2022/07/24 04:38:59;;;;;;;4.47;2.00;;;;;;;21.44;64.56;99420.48;1735793;82;21055;-80
2022/07/24 04:41:26;;;;;;;12.28;2.00;;;;;;;21.54;63.92;99415.77;1735920;82;20996;-81
2022/07/24 04:43:52;;;;;;;3.98;1.92;;;;;;;21.61;63.16;99412.94;1736324;82;21123;-81
2022/07/24 04:46:19;;;;;;;3.45;1.85;;;;;;;21.65;63.12;99409.02;1736114;82;21725;-82
2022/07/24 04:48:45;;;;;;;5.42;1.80;;;;;;;21.68;62.89;99409.61;1735476;82;21487;-80
2022/07/24 04:51:13;;;;;;;6.12;1.85;;;;;;;21.74;63.19;99410.95;1735913;82;21511;-82
2022/07/24 04:53:39;;;;;;;4.60;1.82;;;;;;;21.77;63.12;99406.68;1736059;82;21557;-81
2022/07/24 04:56:06;;;;;;;5.60;1.77;;;;;;;21.81;63.12;99408.11;1736771;80;21103;-81
2022/07/24 04:58:33;;;;;;;6.53;2.00;;;;;;;21.84;62.99;99405.19;1746367;81;21082;-81
2022/07/24 05:01:00;;;;;;;4.60;1.92;;;;;;;21.88;62.79;99401.25;1747936;82;21044;-81
2022/07/24 05:03:26;;;;;;;2.90;1.65;;;;;;;21.93;62.13;99398.70;1741838;80;21064;-81
2022/07/24 05:05:53;;;;;;;4.20;1.65;;;;;;;21.97;62.06;99410.38;1733726;82;21086;-80
2022/07/24 05:08:21;;;;;;;4.05;1.70;;;;;;;22.01;61.65;99407.78;1678910;85;21159;-82
2022/07/24 05:10:47;;;;;;;3.92;1.70;;;;;;;22.06;62.00;99411.42;1679277;85;21131;-82
2022/07/24 05:13:15;;;;;;;7.53;1.77;;;;;;;22.10;61.50;99403.47;1678741;85;21140;-82
2022/07/24 05:15:42;;;;;;;3.20;1.45;;;;;;;22.13;62.04;99403.22;1678832;85;21115;-83
2022/07/24 05:18:09;;;;;;;6.45;1.57;;;;;;;22.19;61.90;99402.71;1679259;85;21100;-82
2022/07/24 05:20:37;;;;;;;4.00;1.25;;;;;;;22.29;61.83;99405.97;1678882;85;21147;-83
2022/07/24 05:23:05;;;;;;;4.03;1.40;;;;;;;22.37;61.73;99394.94;1678911;85;21151;-83
2022/07/24 05:25:32;;;;;;;4.10;1.10;;;;;;;22.50;61.41;99390.72;1678931;85;21103;-83
2022/07/24 05:27:58;;;;;;;2.52;1.47;;;;;;;22.61;60.15;99389.78;1679140;85;21167;-83
2022/07/24 05:30:25;;;;;;;1.80;1.40;;;;;;;22.72;59.43;99383.50;1679040;85;21052;-82
2022/07/24 05:32:51;;;;;;;1.92;1.70;;;;;;;22.83;59.62;99383.41;1679035;85;23180;-81
2022/07/24 05:35:18;;;;;;;1.45;1.35;;;;;;;22.95;59.85;99383.66;1679109;85;21673;-81
2022/07/24 05:37:46;;;;;;;3.30;1.60;;;;;;;23.08;59.87;99383.94;1678603;85;21190;-84
2022/07/24 05:40:13;;;;;;;5.47;2.00;;;;;;;23.19;59.19;99382.50;1679121;85;21198;-82
2022/07/24 05:42:39;;;;;;;7.42;1.80;;;;;;;23.31;58.65;99387.26;1679084;85;21139;-83
2022/07/24 05:45:07;;;;;;;6.83;1.62;;;;;;;23.43;60.13;99389.33;1679179;85;21076;-82
2022/07/24 05:47:39;;;;;;;4.33;1.60;;;;;;;23.53;57.39;99391.53;1679061;84;22148;-82
2022/07/24 05:50:09;;;;;;;2.67;1.80;;;;;;;23.61;57.59;99399.74;1678243;85;21130;-83
2022/07/24 05:52:36;;;;;;;4.33;2.00;;;;;;;23.69;58.19;99394.52;1678301;85;21060;-84
2022/07/24 05:55:04;;;;;;;3.42;1.70;;;;;;;23.80;57.80;99398.91;1678970;85;21120;-83
2022/07/24 05:57:31;;;;;;;3.55;1.82;;;;;;;23.86;55.75;99399.72;1679102;85;21123;-84
2022/07/24 05:59:57;;;;;;;2.90;1.92;;;;;;;23.91;55.37;99412.74;1679050;85;21669;-82
2022/07/24 06:02:23;;;;;;;3.65;2.87;;;;;;;23.96;55.82;99408.30;1678512;85;21115;-83
2022/07/24 06:04:50;;;;;;;8.68;2.00;;;;;;;24.00;55.25;99403.81;1678940;85;21045;-82
2022/07/24 06:07:16;;;;;;;5.95;2.90;;;;;;;24.05;55.61;99398.86;1678950;85;21167;-83
2022/07/24 06:09:43;;;;;;;2.20;1.40;;;;;;;24.11;55.19;99405.02;1678832;85;21084;-82
2022/07/24 06:12:09;;;;;;;5.53;1.60;;;;;;;24.15;54.68;99404.23;1679278;85;21770;-84
2022/07/24 06:14:36;;;;;;;2.85;2.62;;;;;;;24.19;54.99;99406.13;1679089;85;21083;-81
2022/07/24 06:17:02;;;;;;;4.25;1.77;;;;;;;24.24;54.32;99398.48;1678695;85;21087;-81
2022/07/24 06:19:29;;;;;;;8.00;1.70;;;;;;;24.29;53.84;99398.91;1678843;85;21089;-81
2022/07/24 06:21:56;;;;;;;4.20;1.40;;;;;;;24.34;53.66;99397.97;1678854;85;21077;-82
2022/07/24 06:24:22;;;;;;;4.70;1.72;;;;;;;24.39;53.30;99394.34;1678965;85;21109;-82
2022/07/24 06:26:48;;;;;;;5.58;2.00;;;;;;;24.46;54.24;99398.17;1679017;85;21036;-82
2022/07/24 06:29:15;;;;;;;4.00;1.47;;;;;;;24.56;53.04;99394.63;1678986;85;21550;-81
2022/07/24 06:31:42;;;;;;;2.87;1.60;;;;;;;24.62;51.58;99390.86;1678946;85;21077;-81
2022/07/24 06:34:08;;;;;;;1.77;1.10;;;;;;;24.66;52.66;99391.41;1679218;85;21112;-81
2022/07/24 06:36:35;;;;;;;2.52;1.30;;;;;;;24.72;51.63;99398.91;1678911;85;21638;-81
2022/07/24 06:39:02;;;;;;;1.40;1.30;;;;;;;24.76;51.05;99393.56;1678936;85;21044;-82
2022/07/24 06:41:28;;;;;;;2.02;1.27;;;;;;;24.82;51.56;99394.84;1678872;85;21111;-81
2022/07/24 06:43:55;;;;;;;3.98;1.40;;;;;;;24.89;51.10;99395.09;1678839;85;21029;-82
2022/07/24 06:46:22;;;;;;;3.20;1.57;;;;;;;24.94;50.45;99384.73;1679250;85;21032;-82
2022/07/24 06:48:49;;;;;;;6.05;1.17;;;;;;;24.98;50.51;99380.26;1680646;84;21870;-82
2022/07/24 06:51:17;;;;;;;1.27;1.17;;;;;;;25.06;50.32;99376.80;1681831;85;21986;-81
2022/07/24 06:53:46;;;;;;;2.98;1.07;;;;;;;25.13;50.82;99371.19;1681834;85;21064;-84
2022/07/24 06:56:13;;;;;;;2.95;1.15;;;;;;;25.22;51.16;99377.00;1681828;85;21067;-81
2022/07/24 06:58:39;;;;;;;3.95;1.10;;;;;;;25.32;49.93;99372.10;1681824;85;21024;-80
2022/07/24 07:01:05;;;;;;;2.22;0.80;;;;;;;25.39;49.83;99365.94;1683140;85;21789;-82
2022/07/24 07:03:32;;;;;;;3.58;1.17;;;;;;;25.46;49.66;99363.48;1684077;85;21661;-82
2022/07/24 07:05:59;;;;;;;0.98;0.98;;;;;;;25.53;49.70;99359.68;1684057;85;21083;-82
2022/07/24 07:08:25;;;;;;;3.35;0.90;;;;;;;25.60;48.46;99360.75;1684307;85;21064;-83
2022/07/24 07:10:52;;;;;;;1.00;1.00;;;;;;;25.64;49.00;99345.13;1683626;85;21090;-77
2022/07/24 07:13:18;;;;;;;3.05;1.15;;;;;;;25.71;48.81;99343.52;1684065;85;21076;-83
2022/07/24 07:15:45;;;;;;;1.52;1.00;;;;;;;25.82;48.32;99345.95;1684335;85;21004;-82
2022/07/24 07:18:13;;;;;;;4.05;1.10;;;;;;;25.92;47.74;99340.48;1683942;85;42145;-83
2022/07/24 07:20:40;;;;;;;7.47;1.22;;;;;;;26.00;47.83;99340.59;1683896;85;21661;-82
2022/07/24 07:23:06;;;;;;;5.37;1.07;;;;;;;26.10;47.15;99333.75;1684111;85;21076;-83
2022/07/24 07:25:33;;;;;;;2.98;0.98;;;;;;;26.17;47.80;99333.46;1684307;85;21638;-81
2022/07/24 07:28:00;;;;;;;2.10;0.90;;;;;;;26.23;46.21;99331.48;1684030;85;21103;-84
2022/07/24 07:30:27;;;;;;;2.62;0.80;;;;;;;26.23;45.98;99329.30;1683830;85;21099;-83
2022/07/24 07:32:53;;;;;;;1.05;0.90;;;;;;;26.27;46.73;99329.31;1683937;85;21641;-78
2022/07/24 07:35:22;;;;;;;1.25;1.00;;;;;;;26.39;45.57;99329.38;1683986;85;21593;-83
2022/07/24 07:37:50;;;;;;;2.67;1.05;;;;;;;26.47;45.20;99321.85;1684313;85;21896;-82
2022/07/24 07:40:17;;;;;;;2.20;1.02;;;;;;;26.56;44.79;99312.78;1683557;85;21147;-83
2022/07/24 07:42:43;;;;;;;0.90;0.90;;;;;;;26.64;44.16;99320.95;1684313;85;21106;-82
2022/07/24 07:45:10;;;;;;;6.42;0.80;;;;;;;26.70;45.05;99316.78;1683921;85;21127;-83
2022/07/24 07:47:37;;;;;;;2.02;0.90;;;;;;;26.77;43.68;99316.46;1685825;82;21135;-84
2022/07/24 07:50:04;;;;;;;3.40;0.90;;;;;;;26.79;43.01;99320.35;1736978;82;21244;-82
2022/07/24 07:52:31;;;;;;;2.27;1.07;;;;;;;26.83;43.15;99320.36;1737162;82;21015;-84
2022/07/24 07:54:57;;;;;;;2.25;0.95;;;;;;;26.86;43.64;99323.59;1736862;82;21134;-84
2022/07/24 07:57:24;;;;;;;3.00;1.07;;;;;;;26.93;44.12;99324.28;1736872;82;21125;-83
2022/07/24 07:59:50;;;;;;;4.53;1.07;;;;;;;27.01;43.83;99310.30;1737277;82;21293;-84
2022/07/24 08:02:17;;;;;;;3.62;1.10;;;;;;;27.12;44.63;99313.21;1736929;82;21361;-83
2022/07/24 08:04:43;;;;;;;5.08;1.57;;;;;;;27.23;43.76;99309.34;1736784;82;21038;-84
2022/07/24 08:07:11;;;;;;;3.85;1.00;;;;;;;27.34;42.90;99310.42;1695971;84;21083;-81
2022/07/24 08:09:39;;;;;;;1.00;0.90;;;;;;;27.48;42.39;99314.83;1696106;84;21079;-83
2022/07/24 08:12:07;;;;;;;1.95;1.00;;;;;;;27.59;40.41;99315.34;1732304;82;21091;-82
2022/07/24 08:14:33;;;;;;;1.77;0.90;;;;;;;27.61;40.77;99304.37;1719271;83;21127;-83
2022/07/24 08:17:00;;;;;;;3.00;0.95;;;;;;;27.67;40.63;99309.11;1690348;84;21043;-83
2022/07/24 08:19:28;;;;;;;3.62;1.10;;;;;;;27.73;40.84;99307.58;1688951;84;21016;-83
2022/07/24 08:21:55;;;;;;;2.25;1.27;;;;;;;27.78;41.13;99306.56;1719196;83;21047;-82
2022/07/24 08:24:22;;;;;;;5.65;0.95;;;;;;;27.86;41.04;99303.03;1690639;84;21020;-82
2022/07/24 08:26:49;;;;;;;3.27;0.93;;;;;;;27.95;40.68;99298.80;1690518;84;21114;-82
2022/07/24 08:29:17;;;;;;;1.57;0.90;;;;;;;28.07;39.87;99303.34;1690193;84;21081;-81
2022/07/24 08:31:43;;;;;;;0.90;0.80;;;;;;;28.21;39.16;99302.31;1690591;84;21080;-80
2022/07/24 08:34:10;;;;;;;4.20;1.02;;;;;;;28.28;38.50;99311.45;1690501;84;21021;-82
2022/07/24 08:36:38;;;;;;;6.50;0.95;;;;;;;28.26;37.77;99299.45;1690466;84;21122;-81
2022/07/24 08:39:05;;;;;;;1.47;0.98;;;;;;;28.25;38.25;99294.20;1690302;84;21532;-82
2022/07/24 08:41:35;;;;;;;1.45;0.78;;;;;;;28.31;38.51;99300.26;1690361;84;21012;-82
2022/07/24 08:44:02;;;;;;;1.27;0.72;;;;;;;28.37;37.83;99294.16;1690678;84;21491;-83
2022/07/24 08:46:29;;;;;;;1.65;1.10;;;;;;;28.40;38.76;99295.69;1690362;84;21123;-81
2022/07/24 08:48:55;;;;;;;2.50;0.90;;;;;;;28.49;38.92;99285.16;1686516;84;21095;-81
2022/07/24 08:51:22;;;;;;;1.32;0.82;;;;;;;28.58;38.70;99280.59;1762265;80;22254;-80
2022/07/24 08:53:49;;;;;;;1.02;0.72;;;;;;;28.69;38.43;99278.34;1778480;80;21600;-83
2022/07/24 08:56:17;;;;;;;3.12;0.65;;;;;;;28.84;37.42;99271.67;1777788;80;21004;-83
2022/07/24 08:58:44;;;;;;;6.58;0.78;;;;;;;28.98;37.93;99273.30;1778268;80;20984;-82
2022/07/24 09:01:10;;;;;;;2.15;0.90;;;;;;;29.13;38.25;99272.86;1778531;80;21039;-81
2022/07/24 09:03:45;;;;;;;5.87;0.90;;;;;;;29.27;36.77;99273.48;1778533;80;21162;-82
2022/07/24 09:06:13;;;;;;;5.47;1.00;;;;;;;29.30;37.41;99275.50;1778782;80;21384;-82
2022/07/24 09:08:42;;;;;;;1.10;1.00;;;;;;;29.23;36.62;99278.91;1778606;80;21066;-81
2022/07/24 09:11:09;;;;;;;1.07;0.72;;;;;;;29.15;36.53;99272.19;1775727;80;21162;-83
2022/07/24 09:16:25;;;;;;;3.70;0.72;;;;;;;29.10;36.00;99269.14;1779209;80;21834;-81
2022/07/24 09:19:07;;;;;;;1.25;0.80;;;;;;;28.99;36.82;99279.05;1778552;80;21004;-79
2022/07/24 09:21:37;;;;;;;3.80;1.10;;;;;;;28.93;37.32;99271.63;1777187;80;21539;-81
2022/07/24 09:24:18;;;;;;;5.05;1.00;;;;;;;29.04;37.37;99269.88;1778318;80;21023;-81
2022/07/24 09:26:55;;;;;;;4.75;0.78;;;;;;;29.15;37.97;99274.91;1778589;80;21082;-81
2022/07/24 09:29:24;;;;;;;1.70;0.80;;;;;;;29.20;37.00;99273.88;1778620;80;21177;-82
2022/07/24 09:31:57;;;;;;;4.03;1.12;;;;;;;29.24;37.03;99264.36;1778756;80;21122;-81
2022/07/24 09:34:25;;;;;;;4.03;1.20;;;;;;;29.31;37.17;99271.78;1778830;80;21003;-80
2022/07/24 09:36:59;;;;;;;1.45;1.20;;;;;;;29.30;37.23;99264.14;1778927;80;21062;-81
2022/07/24 09:39:27;;;;;;;3.35;1.20;;;;;;;29.18;37.14;99270.48;1777420;80;21031;-81
2022/07/24 09:41:56;;;;;;;1.82;1.10;;;;;;;29.06;37.25;99270.54;1778705;80;21140;-82
2022/07/24 09:44:25;;;;;;;4.80;1.17;;;;;;;29.03;37.46;99274.95;1778324;80;21558;-80
2022/07/24 09:47:10;;;;;;;3.42;1.00;;;;;;;28.98;36.96;99271.94;1778731;80;21577;-80
2022/07/24 09:49:38;;;;;;;4.72;0.80;;;;;;;28.82;36.73;99276.42;1779993;80;21122;-83
2022/07/24 09:52:15;;;;;;;4.33;1.25;;;;;;;28.71;37.74;99279.52;1781122;80;21063;-81
2022/07/24 09:54:48;;;;;;;5.65;1.22;;;;;;;28.69;37.93;99276.98;1780215;80;21251;-80
2022/07/24 09:57:26;;;;;;;2.42;1.10;;;;;;;28.68;38.20;99279.86;1781300;80;21317;-82
2022/07/24 10:00:01;;;;;;;3.40;0.80;;;;;;;28.64;39.46;99279.90;1781055;80;21082;-83
2022/07/24 10:02:32;;;;;;;1.35;1.02;;;;;;;28.58;38.57;99275.17;1781594;80;21027;-81
2022/07/24 10:05:00;;;;;;;6.72;0.90;;;;;;;28.51;38.56;99279.92;1781185;80;21066;-82
2022/07/24 10:07:28;;;;;;;1.72;1.12;;;;;;;28.42;38.52;99283.66;1781406;80;21126;-81
2022/07/24 10:09:56;;;;;;;5.67;1.05;;;;;;;28.33;38.67;99277.95;1780891;80;21577;-80
2022/07/24 10:12:27;;;;;;;5.33;0.90;;;;;;;28.26;38.77;99283.70;1781171;80;20991;-81
2022/07/24 10:15:00;;;;;;;1.95;1.25;;;;;;;28.19;38.73;99285.42;1780963;80;21039;-80
2022/07/24 10:17:29;;;;;;;3.33;1.10;;;;;;;28.10;39.00;99289.48;1780393;80;21463;-80
2022/07/24 10:19:56;;;;;;;4.17;1.10;;;;;;;28.05;39.87;99290.52;1771183;80;22219;-81
2022/07/24 10:22:23;;;;;;;10.75;1.17;;;;;;;28.02;39.06;99290.84;1781255;80;21067;-79
2022/07/24 10:25:07;;;;;;;2.83;1.10;;;;;;;27.98;39.68;99290.87;1780894;80;21039;-79
2022/07/24 10:27:36;;;;;;;1.37;0.90;;;;;;;27.94;39.22;99284.09;1781097;80;21519;-83
2022/07/24 10:30:11;;;;;;;2.17;1.10;;;;;;;27.90;40.26;99290.84;1780889;80;20976;-80
2022/07/24 10:32:38;;;;;;;1.27;0.85;;;;;;;27.89;40.28;99285.09;1781181;80;21104;-80
2022/07/24 10:35:20;;;;;;;12.60;1.50;;;;;;;27.90;41.82;99277.33;1781059;80;21038;-79
2022/07/24 10:38:11;;;;;;;4.28;1.40;;;;;;;27.95;41.15;99273.62;1781129;80;21134;-82
2022/07/24 10:40:53;;;;;;;8.78;1.17;;;;;;;27.98;41.58;99271.94;1781072;80;21063;-84
2022/07/24 10:43:21;;;;;;;2.17;1.15;;;;;;;27.96;41.36;99272.62;1780961;80;20992;-81
2022/07/24 10:46:00;;;;;;;5.47;1.10;;;;;;;27.91;41.28;99274.97;1781243;80;21101;-82
2022/07/24 10:48:30;;;;;;;10.32;1.12;;;;;;;27.86;41.23;99265.17;1780745;80;21004;-83
2022/07/24 10:51:06;;;;;;;6.33;0.93;;;;;;;27.79;42.18;99270.42;1780918;80;21189;-82
2022/07/24 10:53:41;;;;;;;2.77;1.15;;;;;;;27.79;42.00;99264.50;1781320;80;21074;-82
2022/07/24 10:56:30;;;;;;;3.33;1.05;;;;;;;27.77;41.70;99266.53;1755562;80;21006;-83
2022/07/24 10:59:11;;;;;;;1.17;0.98;;;;;;;27.74;41.96;99260.11;1743799;82;21161;-81
2022/07/24 11:01:44;;;;;;;4.40;1.20;;;;;;;27.79;42.38;99259.61;1715162;82;20990;-84
2022/07/24 11:04:25;;;;;;;4.72;0.90;;;;;;;27.86;42.28;99261.13;1743847;82;21077;-82
2022/07/24 11:07:09;;;;;;;3.60;0.90;;;;;;;27.93;41.32;99252.16;1771318;80;21496;-83
2022/07/24 11:10:07;;;;;;;3.62;0.90;;;;;;;28.08;41.53;99253.66;1781028;80;24628;-82
2022/07/24 11:12:35;;;;;;;3.92;1.20;;;;;;;28.25;41.41;99249.56;1780943;80;21071;-82
2022/07/24 11:17:43;;;;;;;1.40;0.80;;;;;;;28.38;40.88;99240.39;1741325;80;21027;-83
2022/07/24 11:20:16;;;;;;;2.02;1.07;;;;;;;28.40;41.71;99232.94;1781054;80;21479;-83
2022/07/24 11:22:52;;;;;;;3.85;1.30;;;;;;;28.50;41.57;99236.80;1781209;80;20977;-81
2022/07/24 11:25:27;;;;;;;3.22;1.22;;;;;;;28.54;40.11;99233.53;1780844;80;21136;-83
2022/07/24 11:28:08;;;;;;;4.50;1.47;;;;;;;28.54;40.58;99241.66;1781102;80;21082;-83
2022/07/24 11:30:34;;;;;;;3.05;1.50;;;;;;;28.51;41.44;99232.56;1752433;80;21040;-80
2022/07/24 11:33:01;;;;;;;7.35;1.72;;;;;;;28.47;41.39;99227.15;1726012;80;21069;-82
2022/07/24 11:35:32;;;;;;;5.05;1.90;;;;;;;28.39;42.45;99227.18;1781098;80;21071;-82
2022/07/24 11:38:01;;;;;;;3.25;1.70;;;;;;;28.27;42.52;99221.83;1750823;80;21910;-82
2022/07/24 11:40:29;;;;;;;3.75;1.82;;;;;;;28.19;42.92;99221.33;1780887;80;21058;-81
2022/07/24 11:42:57;;;;;;;4.60;2.50;;;;;;;28.14;44.62;99227.28;1780814;80;21063;-83